AirNav   Pilot Hours Calculator
 
 1059 users online  

51PN Helistop Ridc Industrial Park Heliport
Blawnox, Pennsylvania, USA

GOING TO BLAWNOX?


FAA INFORMATION EFFECTIVE 07 NOVEMBER 2019

Location

FAA Identifier: 51PN
Lat/Long: 40-29-57.2460N 079-51-55.1790W
40-29.954100N 079-51.919650W
40.4992350,-79.8653275
(estimated)
Elevation: 986 ft. / 300.5 m (surveyed)
Variation: 08W (1985)
From city: 1 mile NW of BLAWNOX, PA
Time zone: UTC -5 (UTC -4 during Daylight Saving Time)
Zip code: 15238

Heliport Operations

Heliport use: Private use. Permission required prior to landing
Activation date: 09/1980
Control tower: no
ARTCC: CLEVELAND CENTER
FSS: ALTOONA FLIGHT SERVICE STATION
Attendance: UNATNDD
Wind indicator: yes
Segmented circle: no

Heliport Communications

WX AWOS-A at 42PN (7 nm W): PHONE 412-442-2213
WX ASOS at AGC (9 nm S): PHONE 412-466-8968
WX ASOS at PIT (17 nm W): PHONE 412-472-0145
WX AWOS-3PT at BTP (17 nm N): 121.450 (724-586-6434)
WX AWOS-3 at FWQ (17 nm S): 118.475 (724-379-5815)

Nearby radio navigation aids

VOR radial/distance  VOR name  Freq  Var
AGCr040/15.5ALLEGHENY VOR/DME110.0009W
EWCr149/25.1ELLWOOD CITY VOR/DME115.8008W
HLGr073/35.2WHEELING VOR/DME112.2007W
IHDr330/39.1INDIAN HEAD VORTAC108.2006W

Heliport Services

Runway Information

Helipad H1

Dimensions: 60 x 60 ft. / 18 x 18 m
Surface: asphalt/concrete
Traffic pattern: leftleft

Heliport Ownership and Management from official FAA records

Ownership: Privately-owned
Owner: RIDC OF SW PA
SUITE 1220 - FRICK BLDG
PITTSBURGH, PA 15219
Phone 412-471-3939
Manager: LEON R. GEVAUDAN
SUITE 1220 - FRICK BLDG
PITTSBURGH, PA 15219
Phone 412-471-3939

Additional Remarks

FOR CD CTC PITTSBURGH APCH AT 412-472-5591

Instrument Procedures

There are no published instrument procedures at 51PN.

Some nearby airports with instrument procedures:

KAGC - Allegheny County Airport (9 nm S)
G05 - Finleyville Airpark (17 nm SW)
KPIT - Pittsburgh International Airport (17 nm W)
KBTP - Pittsburgh/Butler Regional Airport (17 nm N)
KFWQ - Rostraver Airport (17 nm S)
6P7 - McVille Airport (19 nm NE)
 
Loc | Ops | Rwys | IFR | FBO | Links
Com | Nav | Svcs | Stats | Notes
Area around 51PN (Helistop Ridc Industrial Park Heliport)
 
Road maps at: MapQuest Bing Google
 
Aerial photo
No photo
 
Sectional chart

 
Airport distance calculator
Flying to Helistop Ridc Industrial Park Heliport? Find the distance to fly.

From to 51PN

Sunrise and sunset
Times for 21-Nov-2019
 Local
(UTC-5)
 Zulu
(UTC)
Morning civil twilight06:4411:44
Sunrise07:1412:14
Sunset16:5721:57
Evening civil twilight17:2722:27

Current date and time
Zulu (UTC)  21-Nov-2019 14:00:37
Local (UTC-5)  21-Nov-2019 09:00:37
 
METAR
KAGC 
9nm S 
211353Z 16007KT 3SM BR CLR 01/M01 A3018 RMK AO2 SLP237 VIS E 2 T00061006
KBTP 
17nm N 
211256Z AUTO 13003KT 5SM BR CLR M02/M03 A3021 RMK AO2 SLP250 T10221028 FZRANO
KP53 
17nm S 
211256Z AUTO 18008KT 05/04 A2968 RMK AO1 SLP058 P0005 T00500039
KPIT 
18nm W 
211351Z 15004KT 5SM BR BKN140 OVC220 00/M02 A3017 RMK AO2 SLP235 T00001017
TAF
KAGC 
9nm S 
211132Z 2112/2212 17002KT 5SM BR BKN250 FM211400 18006KT P6SM BKN250 FM212200 20010KT P6SM OVC080 WS020/23040KT FM220300 24013KT P6SM VCSH OVC050 WS020/24040KT FM220800 27012G18KT P6SM -SHRA OVC015
KPIT 
18nm W 
211132Z 2112/2218 18006KT P6SM BKN250 FM212200 20010KT P6SM OVC080 WS020/23040KT FM220300 24013KT P6SM VCSH OVC050 WS020/24040KT FM220800 27012G18KT P6SM -SHRA OVC015 FM221400 30014G23KT P6SM VCSH BKN015 FM221700 30010KT P6SM BKN050
NOTAMs
Click for the latest NOTAMs
NOTAMs are issued by the DoD/FAA and will open in a separate window not controlled by AirNav.

 

 
 

Would you like to see your business listed on this page?

 If your business provides an interesting product or service to pilots, flight crews, aircraft, or users of the Helistop Ridc Industrial Park Heliport, you should consider listing it here.  To start the listing process, click on the button below
 
Add a business
 

Other Pages about Helistop Ridc Industrial Park Heliport

Update a link
 
Copyright © AirNav, LLC. All rights reserved. Privacy Policy  Contact